createdAt,value
2023-05-14T00:00:22.588Z,41.42
2023-05-14T00:01:22.384Z,46.79
2023-05-14T00:02:22.569Z,41.59
2023-05-14T00:03:22.647Z,42.93
2023-05-14T00:04:22.564Z,41.25
2023-05-14T00:05:22.565Z,41.61
2023-05-14T00:06:22.592Z,40.50
2023-05-14T00:07:22.634Z,40.67
2023-05-14T00:08:22.688Z,42.69
2023-05-14T00:09:22.741Z,41.26
2023-05-14T00:10:22.956Z,43.13
2023-05-14T00:11:22.820Z,40.13
2023-05-14T00:12:22.850Z,42.44
2023-05-14T00:13:22.887Z,44.23
2023-05-14T00:14:22.925Z,43.64
2023-05-14T00:15:22.965Z,42.06
2023-05-14T00:16:23.055Z,39.31
2023-05-14T00:17:23.113Z,42.23
2023-05-14T00:18:23.075Z,37.79
2023-05-14T00:19:23.101Z,41.17
2023-05-14T00:20:23.690Z,43.00
2023-05-14T00:21:23.192Z,43.56
2023-05-14T00:22:23.230Z,42.44
2023-05-14T00:23:23.281Z,43.18
2023-05-14T00:24:23.307Z,47.38
2023-05-14T00:25:23.449Z,43.22
2023-05-14T00:26:23.405Z,44.42
2023-05-14T00:27:23.456Z,45.48
2023-05-14T00:28:23.493Z,40.10
2023-05-14T00:29:23.549Z,43.87
2023-05-14T00:30:23.792Z,41.63
2023-05-14T00:31:23.657Z,39.49
2023-05-14T00:32:23.693Z,40.95
2023-05-14T00:33:23.729Z,44.91
2023-05-14T00:34:23.752Z,40.42
2023-05-14T00:35:23.800Z,42.59
2023-05-14T00:36:23.851Z,41.94
2023-05-14T00:37:23.870Z,45.16
2023-05-14T00:38:23.907Z,43.63
2023-05-14T00:39:23.949Z,42.74
2023-05-14T00:40:24.236Z,44.60
2023-05-14T00:41:24.036Z,41.98
2023-05-14T00:42:24.084Z,45.74
2023-05-14T00:43:24.132Z,42.31
2023-05-14T00:44:24.161Z,48.29
2023-05-14T00:45:24.217Z,49.46
2023-05-14T00:46:24.274Z,48.63
2023-05-14T00:47:24.335Z,49.16
2023-05-14T00:48:24.337Z,45.75
2023-05-14T00:49:24.396Z,47.53
2023-05-14T00:50:24.652Z,41.21
2023-05-14T00:51:24.471Z,44.12
2023-05-14T00:52:24.521Z,41.97
2023-05-14T00:53:24.550Z,42.22
2023-05-14T00:54:24.604Z,44.98
2023-05-14T00:55:24.678Z,46.89
2023-05-14T00:56:24.701Z,44.37
2023-05-14T00:57:24.753Z,44.83
2023-05-14T00:58:24.808Z,43.18
2023-05-14T00:59:24.855Z,46.58
2023-05-14T01:00:25.139Z,46.68
2023-05-14T01:01:25.008Z,45.20
2023-05-14T01:02:25.043Z,46.77
2023-05-14T01:03:25.066Z,42.59
2023-05-14T01:04:25.133Z,46.66
2023-05-14T01:05:25.114Z,44.75
2023-05-14T01:06:25.162Z,45.39
2023-05-14T01:07:25.254Z,47.80
2023-05-14T01:08:25.240Z,49.43
2023-05-14T01:09:25.290Z,47.69
2023-05-14T01:10:25.616Z,48.28
2023-05-14T01:11:25.386Z,42.72
2023-05-14T01:12:25.417Z,44.52
2023-05-14T01:13:25.469Z,43.98
2023-05-14T01:14:25.516Z,50.24
2023-05-14T01:15:25.567Z,46.32
2023-05-14T01:16:25.642Z,45.90
2023-05-14T01:17:25.704Z,45.14
2023-05-14T01:18:25.687Z,50.05
2023-05-14T01:19:25.763Z,44.61
2023-05-14T01:20:25.999Z,43.73
2023-05-14T01:21:25.821Z,45.37
2023-05-14T01:22:25.863Z,44.70
2023-05-14T01:23:25.914Z,44.37
2023-05-14T01:24:25.953Z,43.78
2023-05-14T01:25:26.005Z,40.77
2023-05-14T01:26:26.044Z,39.44
2023-05-14T01:27:26.087Z,40.80
2023-05-14T01:28:26.133Z,42.24
2023-05-14T01:29:26.185Z,42.48
2023-05-14T01:30:26.467Z,43.11
2023-05-14T01:31:26.305Z,42.73
2023-05-14T01:32:26.307Z,39.96
2023-05-14T01:33:26.353Z,41.04
2023-05-14T01:34:26.395Z,42.79
2023-05-14T01:35:26.439Z,40.07
2023-05-14T01:36:26.465Z,38.56
2023-05-14T01:37:26.507Z,44.52
2023-05-14T01:38:26.558Z,40.97
2023-05-14T01:39:26.589Z,43.54
2023-05-14T01:40:26.717Z,46.17
2023-05-14T01:41:26.674Z,44.10
2023-05-14T01:42:26.721Z,41.59
2023-05-14T01:43:26.832Z,44.06
2023-05-14T01:44:26.816Z,43.13
2023-05-14T01:45:26.863Z,44.39
2023-05-14T01:46:26.922Z,45.82
2023-05-14T01:47:26.974Z,46.82
2023-05-14T01:48:26.992Z,44.72
2023-05-14T01:49:27.037Z,46.55
2023-05-14T01:50:27.099Z,47.50
2023-05-14T01:51:27.114Z,45.32
2023-05-14T01:52:27.143Z,44.68
2023-05-14T01:53:27.199Z,43.43
2023-05-14T01:54:27.238Z,44.75
2023-05-14T01:55:27.279Z,48.03
2023-05-14T01:56:27.321Z,43.17
2023-05-14T01:57:27.367Z,46.20
2023-05-14T01:58:27.406Z,46.97
2023-05-14T01:59:27.432Z,44.50
2023-05-14T02:00:27.490Z,43.76
2023-05-14T02:01:27.545Z,44.88
2023-05-14T02:02:27.575Z,44.56
2023-05-14T02:03:27.633Z,50.83
2023-05-14T02:04:27.710Z,48.02
2023-05-14T02:05:27.705Z,45.20
2023-05-14T02:06:27.723Z,48.57
2023-05-14T02:07:27.778Z,46.78
2023-05-14T02:08:27.810Z,45.12
2023-05-14T02:09:27.854Z,45.76
2023-05-14T02:10:27.866Z,46.64
2023-05-14T02:11:27.924Z,47.29
2023-05-14T02:12:27.947Z,44.82
2023-05-14T02:13:27.977Z,45.44
2023-05-14T02:14:28.020Z,44.43
2023-05-14T02:15:28.064Z,43.57
2023-05-14T02:16:28.165Z,45.74
2023-05-14T02:17:28.200Z,42.93
2023-05-14T02:18:28.220Z,45.14
2023-05-14T02:19:28.195Z,42.60
2023-05-14T02:20:28.245Z,45.72
2023-05-14T02:21:28.266Z,47.79
2023-05-14T02:22:28.305Z,41.92
2023-05-14T02:23:40.465Z,43.52
2023-05-14T02:24:29.359Z,43.73
2023-05-14T02:25:28.315Z,43.93
2023-05-14T02:26:28.288Z,46.27
2023-05-14T02:27:28.281Z,45.74
2023-05-14T02:28:28.242Z,46.90
2023-05-14T02:29:28.225Z,47.62
2023-05-14T02:30:28.225Z,46.06
2023-05-14T02:31:28.178Z,46.00
2023-05-14T02:32:28.423Z,47.64
2023-05-14T02:33:28.330Z,45.49
2023-05-14T02:34:28.285Z,46.63
2023-05-14T02:35:28.341Z,48.94
2023-05-14T02:36:28.407Z,47.91
2023-05-14T02:37:28.435Z,49.94
2023-05-14T02:38:28.483Z,44.90
2023-05-14T02:39:28.519Z,46.66
2023-05-14T02:40:28.564Z,46.50
2023-05-14T02:41:28.601Z,51.18
2023-05-14T02:42:28.644Z,44.25
2023-05-14T02:43:28.760Z,47.40
2023-05-14T02:44:28.729Z,47.29
2023-05-14T02:45:28.785Z,46.70
2023-05-14T02:46:28.825Z,47.60
2023-05-14T02:47:28.868Z,45.71
2023-05-14T02:48:28.864Z,45.19
2023-05-14T02:49:28.906Z,44.87
2023-05-14T02:50:28.939Z,48.52
2023-05-14T02:51:28.966Z,45.71
2023-05-14T02:52:29.014Z,47.69
2023-05-14T02:53:29.055Z,46.09
2023-05-14T02:54:29.107Z,49.82
2023-05-14T02:55:29.142Z,51.57
2023-05-14T02:56:29.176Z,49.34
2023-05-14T02:57:29.212Z,47.89
2023-05-14T02:58:29.258Z,50.79
2023-05-14T02:59:29.288Z,44.93
2023-05-14T03:00:29.328Z,46.01
2023-05-14T03:01:29.427Z,45.49
2023-05-14T03:02:29.494Z,42.82
2023-05-14T03:03:29.520Z,45.43
2023-05-14T03:04:29.528Z,44.69
2023-05-14T03:05:29.535Z,45.81
2023-05-14T03:06:29.579Z,47.91
2023-05-14T03:07:29.619Z,46.72
2023-05-14T03:08:29.656Z,50.06
2023-05-14T03:09:29.701Z,47.92
2023-05-14T03:10:29.744Z,45.90
2023-05-14T03:11:29.770Z,43.36
2023-05-14T03:12:29.805Z,47.18
2023-05-14T03:13:29.827Z,45.70
2023-05-14T03:14:29.878Z,50.51
2023-05-14T03:15:29.932Z,46.88
2023-05-14T03:16:29.966Z,47.84
2023-05-14T03:17:30.005Z,48.43
2023-05-14T03:18:30.027Z,40.58
2023-05-14T03:19:30.050Z,42.86
2023-05-14T03:20:30.083Z,44.90
2023-05-14T03:21:30.127Z,43.60
2023-05-14T03:22:30.169Z,43.59
2023-05-14T03:23:30.210Z,47.67
2023-05-14T03:24:30.246Z,48.84
2023-05-14T03:25:30.287Z,41.46
2023-05-14T03:26:30.331Z,44.42
2023-05-14T03:27:30.353Z,48.09
2023-05-14T03:28:30.388Z,47.51
2023-05-14T03:29:30.476Z,48.62
2023-05-14T03:30:30.534Z,49.07
2023-05-14T03:31:30.509Z,43.15
2023-05-14T03:32:30.582Z,49.34
2023-05-14T03:33:30.578Z,46.40
2023-05-14T03:34:30.617Z,43.40
2023-05-14T03:35:30.656Z,41.13
2023-05-14T03:36:30.681Z,41.83
2023-05-14T03:37:30.716Z,47.35
2023-05-14T03:38:30.736Z,44.00
2023-05-14T03:39:30.765Z,45.24
2023-05-14T03:40:30.869Z,43.78
2023-05-14T03:41:30.850Z,42.42
2023-05-14T03:42:30.891Z,41.72
2023-05-14T03:43:30.948Z,45.03
2023-05-14T03:44:30.950Z,42.42
2023-05-14T03:45:30.994Z,42.81
2023-05-14T03:46:31.035Z,46.35
2023-05-14T03:47:31.106Z,51.26
2023-05-14T03:48:31.159Z,46.22
2023-05-14T03:49:31.144Z,49.15
2023-05-14T03:50:31.161Z,44.33
2023-05-14T03:51:31.195Z,45.07
2023-05-14T03:52:31.233Z,48.42
2023-05-14T03:53:31.283Z,44.92
2023-05-14T03:54:31.277Z,43.10
2023-05-14T03:55:31.330Z,46.54
2023-05-14T03:56:31.342Z,48.18
2023-05-14T03:57:31.371Z,45.74
2023-05-14T03:58:31.385Z,49.30
2023-05-14T03:59:31.406Z,43.72
2023-05-14T04:00:31.431Z,45.53
2023-05-14T04:01:31.445Z,46.63
2023-05-14T04:02:31.518Z,49.30
2023-05-14T04:03:31.807Z,49.16
2023-05-14T04:04:31.557Z,48.40
2023-05-14T04:05:31.617Z,46.95
2023-05-14T04:06:31.561Z,45.98
2023-05-14T04:07:31.601Z,47.46
2023-05-14T04:08:31.617Z,48.28
2023-05-14T04:09:31.614Z,44.25
2023-05-14T04:10:31.634Z,46.53
2023-05-14T04:11:31.677Z,47.05
2023-05-14T04:12:31.697Z,47.35
2023-05-14T04:13:31.765Z,45.25
2023-05-14T04:14:31.777Z,45.40
2023-05-14T04:15:31.824Z,45.72
2023-05-14T04:16:31.905Z,45.52
2023-05-14T04:17:32.661Z,42.54
2023-05-14T04:18:31.954Z,46.43
2023-05-14T04:19:31.929Z,45.79
2023-05-14T04:20:31.946Z,45.38
2023-05-14T04:21:32.515Z,46.09
2023-05-14T04:22:32.037Z,46.42
2023-05-14T04:23:32.071Z,46.54
2023-05-14T04:24:32.111Z,48.59
2023-05-14T04:25:32.141Z,47.47
2023-05-14T04:26:32.164Z,49.36
2023-05-14T04:27:32.177Z,47.42
2023-05-14T04:28:32.227Z,44.66
2023-05-14T04:29:32.258Z,46.36
2023-05-14T04:30:32.313Z,50.03
2023-05-14T04:31:32.342Z,46.57
2023-05-14T04:32:32.382Z,43.92
2023-05-14T04:33:32.407Z,44.64
2023-05-14T04:34:32.436Z,42.91
2023-05-14T04:35:32.455Z,44.30
2023-05-14T04:36:32.504Z,44.64
2023-05-14T04:37:32.512Z,43.86
2023-05-14T04:38:32.545Z,47.79
2023-05-14T04:39:32.595Z,50.33
2023-05-14T04:40:32.604Z,49.29
2023-05-14T04:41:32.623Z,46.99
2023-05-14T04:42:32.667Z,44.75
2023-05-14T04:43:32.697Z,46.62
2023-05-14T04:44:32.692Z,45.28
2023-05-14T04:45:34.325Z,45.73
2023-05-14T04:46:32.799Z,49.04
2023-05-14T04:47:32.781Z,47.94
2023-05-14T04:48:32.791Z,48.54
2023-05-14T04:49:32.819Z,44.72
2023-05-14T04:50:32.866Z,45.97
2023-05-14T04:51:32.889Z,50.92
2023-05-14T04:52:32.917Z,47.29
2023-05-14T04:53:32.930Z,45.03
2023-05-14T04:54:33.054Z,46.23
2023-05-14T04:55:33.059Z,47.31
2023-05-14T04:56:33.072Z,46.07
2023-05-14T04:57:33.112Z,49.21
2023-05-14T04:58:34.809Z,48.09
2023-05-14T04:59:33.186Z,47.53
2023-05-14T05:00:33.227Z,46.64
2023-05-14T05:01:33.353Z,44.82
2023-05-14T05:02:33.309Z,48.58
2023-05-14T05:03:33.455Z,46.35
2023-05-14T05:04:33.366Z,46.54
2023-05-14T05:05:33.390Z,50.36
2023-05-14T05:06:33.439Z,48.46
2023-05-14T05:07:33.458Z,43.55
2023-05-14T05:08:33.490Z,45.07
2023-05-14T05:09:33.524Z,43.00
2023-05-14T05:10:33.531Z,41.47
2023-05-14T05:11:33.601Z,39.84
2023-05-14T05:12:33.605Z,37.40
2023-05-14T05:13:33.637Z,38.27
2023-05-14T05:14:33.666Z,39.71
2023-05-14T05:15:33.687Z,38.12
2023-05-14T05:16:33.726Z,38.59
2023-05-14T05:17:33.777Z,37.69
2023-05-14T05:18:33.864Z,41.42
2023-05-14T05:19:43.098Z,42.05
2023-05-14T05:20:34.780Z,42.25
2023-05-14T05:21:33.784Z,42.28
2023-05-14T05:22:33.739Z,42.80
2023-05-14T05:23:33.800Z,45.74
2023-05-14T05:24:33.692Z,44.20
2023-05-14T05:25:33.658Z,48.88
2023-05-14T05:26:33.662Z,43.55
2023-05-14T05:27:33.618Z,43.72
2023-05-14T05:28:33.616Z,47.16
2023-05-14T05:29:33.642Z,41.07
2023-05-14T05:30:33.661Z,42.23
2023-05-14T05:31:33.736Z,41.30
2023-05-14T05:32:33.751Z,42.66
2023-05-14T05:33:33.765Z,40.23
2023-05-14T05:34:33.790Z,44.79
2023-05-14T05:35:33.835Z,42.86
2023-05-14T05:36:33.869Z,40.61
2023-05-14T05:37:33.991Z,41.81
2023-05-14T05:38:33.914Z,39.77
2023-05-14T05:39:33.925Z,46.08
2023-05-14T05:40:33.940Z,40.10
2023-05-14T05:41:33.961Z,42.72
2023-05-14T05:42:33.968Z,42.13
2023-05-14T05:43:33.973Z,41.24
2023-05-14T05:44:33.983Z,42.48
2023-05-14T05:45:34.000Z,41.59
2023-05-14T05:46:34.042Z,44.63
2023-05-14T05:47:34.076Z,44.16
2023-05-14T05:48:34.078Z,42.53
2023-05-14T05:49:34.093Z,45.49
2023-05-14T05:50:34.117Z,36.81
2023-05-14T05:51:35.033Z,39.55
2023-05-14T05:52:34.122Z,41.31
2023-05-14T05:53:34.157Z,43.13
2023-05-14T05:54:34.165Z,47.53
2023-05-14T05:55:34.212Z,45.27
2023-05-14T05:56:34.245Z,43.46
2023-05-14T05:57:34.284Z,44.48
2023-05-14T05:58:34.303Z,47.52
2023-05-14T05:59:34.347Z,45.60
2023-05-14T06:00:34.328Z,45.78
2023-05-14T06:01:34.362Z,39.52
2023-05-14T06:02:34.436Z,43.36
2023-05-14T06:03:34.423Z,40.10
2023-05-14T06:04:34.455Z,44.72
2023-05-14T06:05:34.508Z,42.25
2023-05-14T06:06:34.539Z,40.66
2023-05-14T06:07:34.560Z,41.69
2023-05-14T06:08:34.567Z,40.91
2023-05-14T06:09:34.590Z,37.37
2023-05-14T06:10:34.628Z,37.90
2023-05-14T06:11:34.668Z,37.33
2023-05-14T06:12:34.715Z,34.47
2023-05-14T06:13:34.737Z,40.30
2023-05-14T06:14:34.774Z,37.85
2023-05-14T06:15:34.815Z,35.76
2023-05-14T06:16:34.910Z,37.05
2023-05-14T06:17:34.902Z,41.01
2023-05-14T06:18:34.999Z,39.71
2023-05-14T06:19:34.970Z,39.01
2023-05-14T06:20:35.002Z,36.67
2023-05-14T06:21:35.053Z,40.05
2023-05-14T06:22:35.097Z,39.47
2023-05-14T06:23:35.160Z,38.97
2023-05-14T06:24:36.053Z,40.14
2023-05-14T06:25:35.206Z,40.72
2023-05-14T06:26:35.247Z,38.60
2023-05-14T06:27:35.280Z,38.74
2023-05-14T06:28:35.307Z,38.73
2023-05-14T06:29:35.344Z,38.87
2023-05-14T06:30:35.393Z,36.09
2023-05-14T06:31:35.458Z,38.54
2023-05-14T06:32:35.522Z,38.17
2023-05-14T06:33:35.507Z,36.38
2023-05-14T06:34:35.563Z,38.82
2023-05-14T06:35:35.610Z,39.61
2023-05-14T06:36:35.627Z,41.44
2023-05-14T06:37:35.673Z,39.01
2023-05-14T06:38:35.695Z,42.04
2023-05-14T06:39:35.733Z,39.06
2023-05-14T06:40:35.745Z,42.57
2023-05-14T06:41:35.754Z,39.53
2023-05-14T06:42:35.800Z,39.85
2023-05-14T06:43:35.830Z,37.91
2023-05-14T06:44:35.846Z,35.43
2023-05-14T06:45:35.883Z,35.90
2023-05-14T06:46:35.917Z,38.18
2023-05-14T06:47:35.998Z,37.37
2023-05-14T06:48:36.035Z,38.95
2023-05-14T06:49:36.045Z,37.43
2023-05-14T06:50:36.064Z,37.59
2023-05-14T06:51:36.116Z,39.21
2023-05-14T06:52:36.157Z,34.54
2023-05-14T06:53:36.197Z,36.04
2023-05-14T06:54:36.248Z,34.26
2023-05-14T06:55:36.276Z,38.28
2023-05-14T06:56:36.326Z,36.18
2023-05-14T06:57:37.291Z,33.40
2023-05-14T06:58:36.385Z,37.95
2023-05-14T06:59:36.423Z,32.81
2023-05-14T07:00:36.496Z,34.18
2023-05-14T07:01:36.529Z,36.31
2023-05-14T07:02:36.580Z,34.82
2023-05-14T07:03:36.579Z,33.41
2023-05-14T07:04:36.735Z,34.07
2023-05-14T07:05:36.658Z,36.58
2023-05-14T07:06:36.702Z,36.16
2023-05-14T07:07:36.735Z,32.81
2023-05-14T07:08:36.765Z,35.02
2023-05-14T07:09:36.796Z,30.19
2023-05-14T07:10:36.829Z,33.15
2023-05-14T07:11:36.872Z,35.07
2023-05-14T07:12:36.908Z,32.01
2023-05-14T07:13:36.940Z,32.06
2023-05-14T07:14:36.981Z,30.81
2023-05-14T07:15:37.041Z,30.97
2023-05-14T07:16:37.143Z,30.74
2023-05-14T07:17:37.140Z,32.05
2023-05-14T07:18:37.177Z,34.70
2023-05-14T07:19:37.181Z,32.52
2023-05-14T07:20:37.218Z,29.66
2023-05-14T07:21:37.269Z,32.93
2023-05-14T07:22:37.297Z,28.42
2023-05-14T07:23:37.323Z,31.78
2023-05-14T07:24:37.351Z,33.98
2023-05-14T07:25:37.392Z,34.02
2023-05-14T07:26:37.430Z,35.10
2023-05-14T07:27:37.453Z,30.89
2023-05-14T07:28:37.500Z,35.79
2023-05-14T07:29:37.539Z,32.45
2023-05-14T07:30:37.582Z,34.20
2023-05-14T07:31:37.787Z,32.04
2023-05-14T07:32:37.711Z,29.89
2023-05-14T07:33:37.660Z,25.32
2023-05-14T07:34:37.678Z,30.83
2023-05-14T07:35:37.710Z,26.35
2023-05-14T07:36:37.732Z,25.00
2023-05-14T07:37:37.764Z,28.21
2023-05-14T07:38:37.796Z,27.27
2023-05-14T07:39:37.811Z,27.76
2023-05-14T07:40:37.821Z,28.86
2023-05-14T07:41:37.824Z,25.51
2023-05-14T07:42:37.850Z,28.70
2023-05-14T07:43:37.864Z,25.36
2023-05-14T07:44:37.885Z,27.99
2023-05-14T07:45:38.590Z,26.65
2023-05-14T07:46:37.879Z,27.72
2023-05-14T07:47:37.905Z,27.53
2023-05-14T07:48:37.970Z,30.38
2023-05-14T07:49:37.900Z,29.82
2023-05-14T07:50:37.904Z,27.67
2023-05-14T07:51:37.907Z,30.38
2023-05-14T07:52:37.907Z,30.35
2023-05-14T07:53:37.892Z,30.49
2023-05-14T07:54:37.935Z,28.48
2023-05-14T07:55:37.919Z,28.49
2023-05-14T07:56:37.932Z,25.72
2023-05-14T07:57:37.938Z,30.58
2023-05-14T07:58:37.920Z,30.30
2023-05-14T07:59:37.927Z,30.55
2023-05-14T08:00:37.925Z,30.29
2023-05-14T08:01:39.462Z,28.16
2023-05-14T08:02:38.058Z,28.98
2023-05-14T08:03:38.008Z,29.83
2023-05-14T08:04:38.102Z,32.63
2023-05-14T08:05:37.941Z,29.00
2023-05-14T08:06:37.942Z,32.40
2023-05-14T08:07:37.950Z,32.18
2023-05-14T08:08:37.938Z,33.90
2023-05-14T08:09:37.942Z,33.90
2023-05-14T08:10:38.015Z,35.53
2023-05-14T08:11:37.934Z,36.03
2023-05-14T08:12:37.918Z,37.66
2023-05-14T08:13:37.906Z,40.20
2023-05-14T08:14:37.902Z,34.92
2023-05-14T08:15:37.888Z,36.51
2023-05-14T08:16:37.992Z,38.62
2023-05-14T08:17:37.915Z,39.88
2023-05-14T08:18:37.908Z,36.75
2023-05-14T08:19:37.832Z,43.01
2023-05-14T08:20:37.831Z,39.66
2023-05-14T08:21:37.820Z,41.92
2023-05-14T08:22:37.822Z,42.01
2023-05-14T08:23:37.825Z,45.11
2023-05-14T08:24:37.826Z,41.50
2023-05-14T08:25:37.820Z,47.01
2023-05-14T08:26:37.821Z,47.46
2023-05-14T08:27:37.796Z,44.90
2023-05-14T08:28:37.808Z,48.89
2023-05-14T08:29:37.800Z,46.75
2023-05-14T08:30:37.822Z,46.62
2023-05-14T08:31:37.775Z,50.86
2023-05-14T08:32:37.770Z,53.59
2023-05-14T08:33:37.756Z,46.54
2023-05-14T08:34:37.771Z,51.35
2023-05-14T08:35:37.746Z,49.81
2023-05-14T08:36:37.750Z,50.31
2023-05-14T08:37:37.767Z,50.77
2023-05-14T08:38:37.764Z,52.29
2023-05-14T08:39:37.771Z,52.97
2023-05-14T08:40:37.764Z,52.31
2023-05-14T08:41:37.770Z,56.11
2023-05-14T08:42:37.784Z,52.79
2023-05-14T08:43:37.798Z,56.25
2023-05-14T08:44:37.818Z,54.49
2023-05-14T08:45:37.824Z,55.16
2023-05-14T08:46:37.847Z,55.76
2023-05-14T08:47:37.862Z,58.76
2023-05-14T08:48:37.961Z,53.79
2023-05-14T08:49:37.839Z,57.64
2023-05-14T08:50:37.865Z,59.77
2023-05-14T08:51:37.867Z,58.44
2023-05-14T08:52:37.899Z,59.00
2023-05-14T08:53:37.895Z,58.55
2023-05-14T08:54:37.926Z,56.88
2023-05-14T08:55:37.945Z,56.73
2023-05-14T08:56:38.010Z,63.47
2023-05-14T08:57:38.054Z,58.23
2023-05-14T08:58:38.090Z,60.70
2023-05-14T08:59:38.119Z,62.62
2023-05-14T09:00:38.137Z,62.12
2023-05-14T09:01:38.226Z,59.37
2023-05-14T09:02:38.334Z,60.26
2023-05-14T09:03:38.219Z,58.13
2023-05-14T09:04:38.224Z,62.29
2023-05-14T09:05:38.256Z,59.80
2023-05-14T09:06:38.287Z,61.46
2023-05-14T09:07:38.273Z,64.69
2023-05-14T09:08:38.286Z,59.84
2023-05-14T09:09:38.294Z,67.04
2023-05-14T09:10:38.293Z,63.00
2023-05-14T09:11:38.320Z,62.66
2023-05-14T09:12:38.335Z,59.35
2023-05-14T09:13:38.385Z,63.74
2023-05-14T09:14:38.401Z,63.24
2023-05-14T09:15:38.425Z,62.34
2023-05-14T09:16:38.462Z,63.25
2023-05-14T09:17:38.464Z,61.94
2023-05-14T09:18:38.479Z,64.37
2023-05-14T09:19:38.481Z,63.44
2023-05-14T09:20:38.522Z,66.41
2023-05-14T09:21:38.574Z,61.98
2023-05-14T09:22:38.540Z,63.82
2023-05-14T09:23:38.559Z,61.45
2023-05-14T09:24:38.589Z,66.95
2023-05-14T09:25:38.609Z,63.30
2023-05-14T09:26:38.616Z,65.50
2023-05-14T09:27:38.629Z,65.22
2023-05-14T09:28:38.613Z,65.42
2023-05-14T09:29:38.623Z,64.47
2023-05-14T09:30:38.647Z,63.89
2023-05-14T09:31:38.680Z,62.21
2023-05-14T09:32:38.725Z,63.74
2023-05-14T09:33:38.658Z,65.87
2023-05-14T09:34:38.680Z,68.80
2023-05-14T09:35:38.688Z,63.57
2023-05-14T09:36:38.709Z,65.26
2023-05-14T09:37:38.745Z,64.81
2023-05-14T09:38:38.740Z,65.17
2023-05-14T09:39:38.780Z,63.14
2023-05-14T09:40:38.784Z,62.35
2023-05-14T09:41:38.772Z,66.13
2023-05-14T09:42:38.778Z,61.40
2023-05-14T09:43:38.783Z,67.21
2023-05-14T09:44:38.763Z,63.49
2023-05-14T09:45:38.755Z,64.64
2023-05-14T09:46:38.778Z,66.14
2023-05-14T09:47:38.963Z,67.53
2023-05-14T09:48:38.885Z,63.70
2023-05-14T09:49:38.789Z,63.88
2023-05-14T09:50:38.787Z,67.00
2023-05-14T09:51:38.799Z,62.18
2023-05-14T09:52:38.804Z,63.66
2023-05-14T09:53:38.807Z,63.65
2023-05-14T09:54:38.807Z,65.95
2023-05-14T09:55:38.826Z,65.39
2023-05-14T09:56:38.818Z,62.35
2023-05-14T09:57:38.812Z,65.98
2023-05-14T09:58:38.798Z,66.33
2023-05-14T09:59:38.827Z,66.41
2023-05-14T10:00:38.833Z,64.37
2023-05-14T10:01:38.938Z,68.33
2023-05-14T10:02:39.055Z,62.70
2023-05-14T10:03:38.855Z,65.21
2023-05-14T10:04:38.936Z,66.22
2023-05-14T10:05:38.865Z,64.41
2023-05-14T10:06:38.875Z,65.04
2023-05-14T10:07:38.957Z,67.02
2023-05-14T10:08:38.906Z,62.86
2023-05-14T10:09:38.870Z,62.58
2023-05-14T10:10:38.881Z,64.37
2023-05-14T10:11:38.915Z,62.31
2023-05-14T10:12:38.899Z,65.96
2023-05-14T10:13:38.891Z,68.11
2023-05-14T10:14:38.927Z,65.65
2023-05-14T10:15:38.961Z,67.66
2023-05-14T10:16:38.984Z,65.64
2023-05-14T10:17:38.981Z,66.44
2023-05-14T10:18:38.998Z,68.50
2023-05-14T10:19:38.961Z,66.76
2023-05-14T10:20:38.969Z,63.74
2023-05-14T10:21:38.973Z,63.26
2023-05-14T10:22:38.997Z,68.13
2023-05-14T10:23:38.995Z,65.60
2023-05-14T10:24:39.028Z,65.70
2023-05-14T10:25:39.028Z,71.74
2023-05-14T10:26:39.043Z,61.86
2023-05-14T10:27:39.016Z,68.67
2023-05-14T10:28:39.021Z,69.24
2023-05-14T10:29:39.034Z,64.40
2023-05-14T10:30:39.025Z,66.71
2023-05-14T10:31:39.040Z,67.64
2023-05-14T10:32:39.044Z,68.64
2023-05-14T10:33:39.023Z,68.90
2023-05-14T10:34:39.018Z,69.66
2023-05-14T10:35:39.032Z,70.37
2023-05-14T10:36:39.053Z,63.66
2023-05-14T10:37:39.085Z,67.14
2023-05-14T10:38:39.073Z,65.17
2023-05-14T10:39:39.071Z,65.11
2023-05-14T10:40:39.058Z,66.44
2023-05-14T10:41:39.057Z,68.47
2023-05-14T10:42:39.069Z,66.56
2023-05-14T10:43:39.191Z,67.24
2023-05-14T10:44:39.119Z,68.46
2023-05-14T10:45:39.137Z,65.05
2023-05-14T10:46:39.212Z,65.67
2023-05-14T10:47:39.212Z,71.22
2023-05-14T10:48:39.210Z,66.53
2023-05-14T10:49:43.245Z,69.15
2023-05-14T10:50:39.222Z,69.20
2023-05-14T10:51:39.276Z,68.34
2023-05-14T10:52:39.193Z,66.36
2023-05-14T10:53:39.177Z,69.71
2023-05-14T10:54:39.179Z,70.09
2023-05-14T10:55:39.159Z,68.42
2023-05-14T10:56:39.150Z,69.07
2023-05-14T10:57:39.147Z,69.68
2023-05-14T10:58:39.127Z,68.98
2023-05-14T10:59:39.108Z,70.59
2023-05-14T11:00:39.078Z,65.80
2023-05-14T11:01:39.114Z,64.93
2023-05-14T11:02:39.224Z,67.42
2023-05-14T11:03:39.089Z,63.86
2023-05-14T11:04:39.012Z,69.43
2023-05-14T11:05:38.990Z,68.11
2023-05-14T11:06:38.985Z,67.26
2023-05-14T11:07:38.971Z,68.14
2023-05-14T11:08:38.957Z,67.11
2023-05-14T11:09:38.930Z,68.94
2023-05-14T11:10:38.923Z,66.93
2023-05-14T11:11:38.931Z,71.32
2023-05-14T11:12:38.984Z,69.46
2023-05-14T11:13:38.993Z,65.65
2023-05-14T11:14:38.944Z,71.14
2023-05-14T11:15:38.988Z,68.43
2023-05-14T11:16:38.996Z,65.57
2023-05-14T11:17:39.016Z,69.04
2023-05-14T11:18:39.031Z,66.46
2023-05-14T11:19:39.015Z,67.60
2023-05-14T11:20:39.036Z,64.21
2023-05-14T11:21:39.077Z,67.37
2023-05-14T11:22:39.063Z,65.03
2023-05-14T11:23:39.109Z,68.48
2023-05-14T11:24:39.152Z,66.82
2023-05-14T11:25:39.179Z,67.71
2023-05-14T11:26:39.261Z,70.35
2023-05-14T11:27:39.274Z,70.58
2023-05-14T11:28:39.300Z,69.72
2023-05-14T11:29:39.312Z,66.94
2023-05-14T11:30:39.395Z,68.74
2023-05-14T11:31:39.424Z,73.19
2023-05-14T11:32:39.496Z,67.37
2023-05-14T11:33:39.458Z,70.47
2023-05-14T11:34:39.490Z,69.08
2023-05-14T11:35:39.533Z,70.66
2023-05-14T11:36:39.567Z,65.25
2023-05-14T11:37:39.603Z,70.43
2023-05-14T11:38:39.637Z,70.28
2023-05-14T11:39:39.733Z,68.79
2023-05-14T11:40:39.712Z,71.96
2023-05-14T11:41:39.715Z,69.01
2023-05-14T11:42:39.741Z,71.83
2023-05-14T11:43:39.760Z,68.23
2023-05-14T11:44:39.770Z,69.14
2023-05-14T11:45:39.781Z,66.45
2023-05-14T11:46:39.903Z,70.99
2023-05-14T11:47:39.864Z,68.70
2023-05-14T11:48:39.813Z,68.68
2023-05-14T11:49:39.834Z,67.69
2023-05-14T11:50:39.879Z,70.16
2023-05-14T11:51:39.900Z,70.27
2023-05-14T11:52:39.924Z,70.65
2023-05-14T11:53:39.974Z,69.44
2023-05-14T11:54:39.990Z,70.88
2023-05-14T11:55:40.020Z,69.10
2023-05-14T11:56:40.062Z,70.26
2023-05-14T11:57:40.097Z,69.52
2023-05-14T11:58:40.152Z,67.99
2023-05-14T11:59:40.193Z,69.07
2023-05-14T12:00:40.233Z,71.11
2023-05-14T12:01:40.282Z,67.83
2023-05-14T12:02:40.372Z,69.35
2023-05-14T12:03:40.524Z,69.81
2023-05-14T12:04:40.464Z,68.94
2023-05-14T12:05:40.462Z,67.43
2023-05-14T12:06:40.474Z,70.36
2023-05-14T12:07:40.514Z,72.60
2023-05-14T12:08:40.552Z,71.81
2023-05-14T12:09:41.172Z,71.10
2023-05-14T12:10:40.713Z,73.98
2023-05-14T12:11:40.655Z,72.72
2023-05-14T12:12:40.694Z,75.26
2023-05-14T12:13:40.711Z,70.43
2023-05-14T12:14:40.714Z,69.10
2023-05-14T12:15:40.781Z,74.47
2023-05-14T12:16:40.798Z,67.11
2023-05-14T12:17:40.839Z,69.74
2023-05-14T12:18:40.935Z,70.11
2023-05-14T12:19:40.866Z,73.36
2023-05-14T12:20:40.867Z,74.77
2023-05-14T12:21:40.905Z,67.99
2023-05-14T12:22:40.967Z,70.16
2023-05-14T12:23:40.970Z,74.31
2023-05-14T12:24:40.997Z,69.56
2023-05-14T12:25:41.047Z,70.47
2023-05-14T12:26:41.042Z,70.61
2023-05-14T12:27:41.057Z,70.73
2023-05-14T12:28:41.072Z,67.26
2023-05-14T12:29:41.104Z,71.87
2023-05-14T12:30:41.153Z,67.16
2023-05-14T12:31:41.204Z,69.20
2023-05-14T12:32:41.417Z,69.43
2023-05-14T12:33:41.251Z,68.77
2023-05-14T12:34:41.257Z,67.47
2023-05-14T12:35:41.254Z,71.58
2023-05-14T12:36:41.289Z,69.51
2023-05-14T12:37:41.341Z,67.94
2023-05-14T12:38:41.392Z,70.68
2023-05-14T12:39:41.385Z,67.05
2023-05-14T12:40:41.422Z,70.21
2023-05-14T12:41:41.462Z,71.51
2023-05-14T12:42:41.478Z,71.13
2023-05-14T12:43:41.511Z,68.10
2023-05-14T12:44:41.520Z,71.20
2023-05-14T12:45:41.573Z,67.91
2023-05-14T12:46:41.649Z,70.94
2023-05-14T12:47:41.773Z,66.90
2023-05-14T12:48:41.684Z,71.21
2023-05-14T12:49:41.715Z,68.53
2023-05-14T12:50:41.772Z,70.51
2023-05-14T12:51:41.791Z,68.12
2023-05-14T12:52:41.857Z,71.90